Polar Lady — WDC4401 — position and weather

sailwx.info

Track history (hours):
 
Tides and Currents Weather Stations Pressure Air Temp Water Temp Dewpoint Dewpoint Depression Visibility Wind Speed Wind Dir Waves Ship Positions

Polar Lady

More information available from US FCC via Universal Licensing System and Coast Guard Vessel Documentation Center.

Last reported at 2014-Jun-20 10:04 UTC. Time now 2014-Jul-24 21:45 UTC.
Position N 54°29' W 130°40'.
Warning: this ship's position is 34 days out of date.

Length 40 m.

Type: Fishing. MMSI: 367024080.

Date/timePositionNaut miles runAvg speedWind from/ knotsBaromVisibWave heightAir tempDewpointWater temp
2014-Jun-20 10:04N 54°29' W 130°40'5 8.9
2014-Jun-20 09:33N 54°25' W 130°38'9 8.6
2014-Jun-20 08:33N 54°17' W 130°33'150 7.9
2014-Jun-19 13:33N 52°14' W 128°11'8 7.5
2014-Jun-19 12:29N 52°06' W 128°08'8 8.1
2014-Jun-19 11:31N 52°03' W 127°56'28 9.0
2014-Jun-19 08:23N 51°35' W 127°52'7 9.0
2014-Jun-19 07:33N 51°27' W 127°51'18 8.6
2014-Jun-19 05:31N 51°10' W 127°50'8 8.6
2014-Jun-19 04:33N 51°04' W 127°41'9 9.3
2014-Jun-19 03:33N 50°58' W 127°30'9 9.0
2014-Jun-19 02:33N 50°52' W 127°19'9 8.9
2014-Jun-19 01:33N 50°48' W 127°07'17 7.9
2014-Jun-18 23:28N 50°37' W 126°46'9 8.1
2014-Jun-18 22:24N 50°31' W 126°37'8 9.2
2014-Jun-18 21:33N 50°30' W 126°25'9 9.5
2014-Jun-18 20:33N 50°29' W 126°10'68 8.0
2014-Jun-18 12:04N 49°45' W 124°49'5 9.1
2014-Jun-18 11:30N 49°42' W 124°44'9 9.0
2014-Jun-18 10:33N 49°36' W 124°34'10 9.0
2014-Jun-18 09:26N 49°28' W 124°24'8 8.8
2014-Jun-18 08:33N 49°24' W 124°13'10 8.6
2014-Jun-18 07:20N 49°21' W 123°58'7 8.6
2014-Jun-18 06:33N 49°19' W 123°48'9 8.7
2014-Jun-18 05:33N 49°13' W 123°38'9 9.3
2014-Jun-18 04:33N 49°07' W 123°27'10 9.7
2014-Jun-18 03:33N 49°01' W 123°16'9 9.3
2014-Jun-18 02:33N 48°55' W 123°05'9 9.3
2014-Jun-18 01:33N 48°49' W 122°54'9 9.0
2014-Jun-18 00:33N 48°43' W 122°44'9 9.3
2014-Jun-17 23:33N 48°34' W 122°45'9 8.6
2014-Jun-17 22:33N 48°25' W 122°44'17 7.7
2014-Jun-17 20:25N 48°09' W 122°41'1012.2
2014-Jun-17 19:33N 47°59' W 122°35'910.5
2014-Jun-17 18:43N 47°52' W 122°27'2 9.8
2014-Jun-17 18:33N 47°51' W 122°27'3 9.5
2014-Jun-17 18:12N 47°47' W 122°26'6 9.4
2014-Jun-17 17:33N 47°41' W 122°25'0 7.1
2014-Jun-17 17:32N 47°41' W 122°25'2 1.8
2014-Jun-17 16:33N 47°40' W 122°23'0 0.0
2014-Jun-17 16:32N 47°40' W 122°23'0 0.0
2014-Jun-17 15:33N 47°40' W 122°23'0 0.0
2014-Jun-17 15:31N 47°40' W 122°23'0 0.0
2014-Jun-17 14:33N 47°40' W 122°23'0 0.0
2014-Jun-17 14:31N 47°40' W 122°23'0 0.0
2014-Jun-17 13:33N 47°40' W 122°23'0 0.0
2014-Jun-17 13:31N 47°40' W 122°23'0 0.0
2014-Jun-17 12:33N 47°40' W 122°23'0 0.1
2014-Jun-17 12:30N 47°40' W 122°23'0 0.0
2014-Jun-17 11:33N 47°40' W 122°23'0 0.1
2014-Jun-17 11:30N 47°40' W 122°23'0 0.0
2014-Jun-17 10:33N 47°40' W 122°23'0 0.0
2014-Jun-17 10:30N 47°40' W 122°23'0 0.0
2014-Jun-17 09:33N 47°40' W 122°23'0 0.0
2014-Jun-17 09:30N 47°40' W 122°23'0 0.0
2014-Jun-17 08:33N 47°40' W 122°23'0 0.0
2014-Jun-17 08:30N 47°40' W 122°23'0 0.0
2014-Jun-17 07:34N 47°40' W 122°23'0 0.0
2014-Jun-17 07:24N 47°40' W 122°23'0 0.0
2014-Jun-17 06:33N 47°40' W 122°23'0 0.0
2014-Jun-17 06:30N 47°40' W 122°23'0 0.0
2014-Jun-17 06:00N 47°40' W 122°23'0 0.0
2014-Jun-17 05:33N 47°40' W 122°23'0 0.0
2014-Jun-17 04:32N 47°40' W 122°23'0 0.0
2014-Jun-17 04:24N 47°40' W 122°23'0 0.0
2014-Jun-17 03:29N 47°40' W 122°23'0 0.0
2014-Jun-17 02:29N 47°40' W 122°23'0 0.1
2014-Jun-17 02:25N 47°40' W 122°23'0 0.0
2014-Jun-17 01:33N 47°40' W 122°23'0 0.0
2014-Jun-17 00:40N 47°40' W 122°23'0 0.0
2014-Jun-17 00:33N 47°40' W 122°23'0 0.1
2014-Jun-17 00:31N 47°40' W 122°23'0 0.0
2014-Jun-16 23:33N 47°40' W 122°23'0 0.0
2014-Jun-16 23:30N 47°40' W 122°23'0 0.4
2014-Jun-16 22:33N 47°40' W 122°23'0 0.1
2014-Jun-16 22:30N 47°40' W 122°23'0 0.0
2014-Jun-16 21:33N 47°40' W 122°23'0 0.0
2014-Jun-16 21:25N 47°40' W 122°23'0 0.0
2014-Jun-16 20:33N 47°40' W 122°23'0 0.0
2014-Jun-16 20:30N 47°40' W 122°23'0 0.0
2014-Jun-16 19:33N 47°40' W 122°23'0 0.0
2014-Jun-16 18:33N 47°40' W 122°23'0 0.0
2014-Jun-16 17:33N 47°40' W 122°23'0 0.0
2014-Jun-16 16:33N 47°40' W 122°23'0 0.0
2014-Jun-16 16:07N 47°40' W 122°23'0 0.0
2014-Jun-16 15:33N 47°40' W 122°23'0 0.0
2014-Jun-16 15:32N 47°40' W 122°23'0 0.0
2014-Jun-16 14:33N 47°40' W 122°23'0 0.0
2014-Jun-16 14:32N 47°40' W 122°23'0 0.0
2014-Jun-16 13:33N 47°40' W 122°23'0 0.0
2014-Jun-16 13:32N 47°40' W 122°23'0 0.0
2014-Jun-16 12:33N 47°40' W 122°23'0 0.0
2014-Jun-16 12:32N 47°40' W 122°23'0 0.0
2014-Jun-16 11:33N 47°40' W 122°23'0 0.2
2014-Jun-16 11:32N 47°40' W 122°23'0 0.0
2014-Jun-16 10:33N 47°40' W 122°23'0 0.0
2014-Jun-16 10:05N 47°40' W 122°23'0 0.0
2014-Jun-16 09:33N 47°40' W 122°23'0 0.0
2014-Jun-16 09:31N 47°40' W 122°23'0 0.0
2014-Jun-16 08:33N 47°40' W 122°23'0 0.0
2014-Jun-16 08:30N 47°40' W 122°23'0 0.0
2014-Jun-16 07:33N 47°40' W 122°23'0 0.0
2014-Jun-16 07:30N 47°40' W 122°23'0 0.0
2014-Jun-16 06:33N 47°40' W 122°23'0 0.0
2014-Jun-16 06:29N 47°40' W 122°23'0 0.0
2014-Jun-16 05:58N 47°40' W 122°23'0 0.0
2014-Jun-16 05:33N 47°40' W 122°23'0 0.0
2014-Jun-16 04:34N 47°40' W 122°23'0 0.7
2014-Jun-16 04:33N 47°40' W 122°23'0 0.0
2014-Jun-16 03:33N 47°40' W 122°23'0 0.0
2014-Jun-16 03:33N 47°40' W 122°23'0 0.0
2014-Jun-16 02:33N 47°40' W 122°23'0 0.0
2014-Jun-16 02:33N 47°40' W 122°23'0 0.0
2014-Jun-16 01:33N 47°40' W 122°23'0 0.0
2014-Jun-16 01:33N 47°40' W 122°23'0 0.0
2014-Jun-16 00:33N 47°40' W 122°23'0 0.0
2014-Jun-16 00:33N 47°40' W 122°23'0 0.0
2014-Jun-15 23:33N 47°40' W 122°23'0 0.0
2014-Jun-15 23:33N 47°40' W 122°23'0 0.0
2014-Jun-15 22:33N 47°40' W 122°23'0 0.0
2014-Jun-15 22:33N 47°40' W 122°23'0 0.0
2014-Jun-15 21:33N 47°40' W 122°23'0 0.3
2014-Jun-15 21:32N 47°40' W 122°23'0 0.0
2014-Jun-15 20:33N 47°40' W 122°23'0 0.0
2014-Jun-15 20:33N 47°40' W 122°23'0 0.0
2014-Jun-15 19:33N 47°40' W 122°23'0 0.6
2014-Jun-15 19:33N 47°40' W 122°23'0 0.0
2014-Jun-15 18:33N 47°40' W 122°23'0 0.0
2014-Jun-15 18:17N 47°40' W 122°23'0 0.0
2014-Jun-15 17:33N 47°40' W 122°23'0 0.1
2014-Jun-15 17:31N 47°40' W 122°23'0 0.0
2014-Jun-15 16:33N 47°40' W 122°23'0 0.1
2014-Jun-15 16:31N 47°40' W 122°23'0 0.0
2014-Jun-15 15:33N 47°40' W 122°23'0 0.0
2014-Jun-15 15:30N 47°40' W 122°23'0 0.0
2014-Jun-15 14:33N 47°40' W 122°23'0 0.0
2014-Jun-15 14:31N 47°40' W 122°23'0 0.0
2014-Jun-15 13:33N 47°40' W 122°23'0 0.0
2014-Jun-15 13:31N 47°40' W 122°23'0 0.0
2014-Jun-15 12:32N 47°40' W 122°23'0 0.0
2014-Jun-15 12:31N 47°40' W 122°23'0 0.0
2014-Jun-15 11:33N 47°40' W 122°23'0 0.0
2014-Jun-15 11:30N 47°40' W 122°23'0 0.0
2014-Jun-15 10:33N 47°40' W 122°23'0 0.0
2014-Jun-15 10:30N 47°40' W 122°23'0 0.0
2014-Jun-15 09:33N 47°40' W 122°23'0 0.0
2014-Jun-15 09:30N 47°40' W 122°23'0 0.0
2014-Jun-15 08:33N 47°40' W 122°23'0 0.0
2014-Jun-15 08:30N 47°40' W 122°23'0 0.0
2014-Jun-15 07:33N 47°40' W 122°23'0 0.1
2014-Jun-15 07:30N 47°40' W 122°23'0 0.0
2014-Jun-15 06:33N 47°40' W 122°23'0 0.0
2014-Jun-15 06:30N 47°40' W 122°23'0 0.0
2014-Jun-15 06:00N 47°40' W 122°23'0 0.0
2014-Jun-15 05:33N 47°40' W 122°23'0 0.0
2014-Jun-15 04:33N 47°40' W 122°23'0 0.0
2014-Jun-15 04:29N 47°40' W 122°23'0 0.0
2014-Jun-15 03:33N 47°40' W 122°23'0 0.0
2014-Jun-15 03:29N 47°40' W 122°23'0 0.0
2014-Jun-15 02:33N 47°40' W 122°23'0 0.0
2014-Jun-15 02:29N 47°40' W 122°23'0 0.0
2014-Jun-15 01:34N 47°40' W 122°23'0 0.0
2014-Jun-15 01:33N 47°40' W 122°23'0 0.0
2014-Jun-15 00:33N 47°40' W 122°23'0 0.0
2014-Jun-15 00:33N 47°40' W 122°23'0 0.0
2014-Jun-14 23:33N 47°40' W 122°23'0 0.0
2014-Jun-14 23:31N 47°40' W 122°23'0 0.0
2014-Jun-14 22:33N 47°40' W 122°23'0 0.0
2014-Jun-14 22:15N 47°40' W 122°23'0 0.0
2014-Jun-14 21:33N 47°40' W 122°23'0 0.0
2014-Jun-14 21:26N 47°40' W 122°23'0 0.0
2014-Jun-14 20:33N 47°40' W 122°23'0 0.1
2014-Jun-14 20:30N 47°40' W 122°23'0 0.0
2014-Jun-14 19:33N 47°40' W 122°23'0 0.1
2014-Jun-14 19:30N 47°40' W 122°23'0 0.0
2014-Jun-14 18:33N 47°40' W 122°23'0 0.0
2014-Jun-14 18:30N 47°40' W 122°23'0 0.0
2014-Jun-14 17:33N 47°40' W 122°23'0 0.0
2014-Jun-14 17:29N 47°40' W 122°23'0 0.0
2014-Jun-14 16:33N 47°40' W 122°23'0 0.0
2014-Jun-14 16:29N 47°40' W 122°23'0 0.0
2014-Jun-14 15:34N 47°40' W 122°23'0 0.0
2014-Jun-14 15:33N 47°40' W 122°23'0 0.0
2014-Jun-14 14:34N 47°40' W 122°23'0 0.0
2014-Jun-14 14:33N 47°40' W 122°23'0 0.0
2014-Jun-14 13:33N 47°40' W 122°23'0 0.0
2014-Jun-14 13:33N 47°40' W 122°23'0 0.0
2014-Jun-14 12:34N 47°40' W 122°23'0 0.0
2014-Jun-14 12:33N 47°40' W 122°23'0 0.0
2014-Jun-14 11:33N 47°40' W 122°23'0 0.0
2014-Jun-14 11:33N 47°40' W 122°23'0 0.0
2014-Jun-14 10:33N 47°40' W 122°23'0 0.0
2014-Jun-14 10:33N 47°40' W 122°23'0 0.0
2014-Jun-14 09:33N 47°40' W 122°23'0 0.0
2014-Jun-14 09:33N 47°40' W 122°23'0 0.0
2014-Jun-14 08:33N 47°40' W 122°23'0 0.0
2014-Jun-14 08:33N 47°40' W 122°23'0 0.0
2014-Jun-14 07:33N 47°40' W 122°23'0 0.0
2014-Jun-14 07:33N 47°40' W 122°23'0 0.0
2014-Jun-14 06:33N 47°40' W 122°23'0 0.0
2014-Jun-14 06:33N 47°40' W 122°23'0 0.0
2014-Jun-14 05:53N 47°40' W 122°23'0 0.0
2014-Jun-14 05:33N 47°40' W 122°23'0 0.0
2014-Jun-14 04:33N 47°40' W 122°23'0 0.0
2014-Jun-14 04:32N 47°40' W 122°23'0 0.0
2014-Jun-14 03:33N 47°40' W 122°23'0 0.0
2014-Jun-14 03:33N 47°40' W 122°23'0 0.0
2014-Jun-14 02:33N 47°40' W 122°23'0 0.0
2014-Jun-14 02:32N 47°40' W 122°23'0 0.0
2014-Jun-14 01:33N 47°40' W 122°23'0 0.0
2014-Jun-14 01:32N 47°40' W 122°23'0 0.0
2014-Jun-14 00:33N 47°40' W 122°23'0 0.0
2014-Jun-14 00:32N 47°40' W 122°23'0 0.0
2014-Jun-13 23:33N 47°40' W 122°23'0 0.4
2014-Jun-13 23:32N 47°40' W 122°23'0 0.0
2014-Jun-13 22:33N 47°40' W 122°23'0 0.4
2014-Jun-13 22:32N 47°40' W 122°23'0 0.0
2014-Jun-13 21:33N 47°40' W 122°23'0 0.0
2014-Jun-13 21:32N 47°40' W 122°23'0 0.0
2014-Jun-13 20:33N 47°40' W 122°23'0 0.0
2014-Jun-13 19:49N 47°40' W 122°23'0 0.0
2014-Jun-13 19:33N 47°40' W 122°23'0 0.0
2014-Jun-13 19:33N 47°40' W 122°23'0 0.0
2014-Jun-13 18:34N 47°40' W 122°23'0 0.0
2014-Jun-13 18:33N 47°40' W 122°23'0 0.0
2014-Jun-13 17:34N 47°40' W 122°23'0 1.7
2014-Jun-13 17:33N 47°40' W 122°23'0 0.0
2014-Jun-13 16:34N 47°40' W 122°23'0 0.0
2014-Jun-13 16:33N 47°40' W 122°23'0 0.0
2014-Jun-13 15:33N 47°40' W 122°23'0 0.1
2014-Jun-13 15:28N 47°40' W 122°23'0 0.0
2014-Jun-13 14:33N 47°40' W 122°23'0 0.0
2014-Jun-13 14:32N 47°40' W 122°23'0 0.0
2014-Jun-13 13:33N 47°40' W 122°23'0 0.3
2014-Jun-13 13:32N 47°40' W 122°23'0 0.0
2014-Jun-13 12:33N 47°40' W 122°23'0 0.0
2014-Jun-13 12:07N 47°40' W 122°23'0 0.0
2014-Jun-13 11:33N 47°40' W 122°23'0 0.0
2014-Jun-13 11:27N 47°40' W 122°23'0 0.0
2014-Jun-13 10:33N 47°40' W 122°23'0 0.0
2014-Jun-13 10:32N 47°40' W 122°23'0 0.0
2014-Jun-13 09:33N 47°40' W 122°23'0 0.0
2014-Jun-13 09:30N 47°40' W 122°23'0 0.0
2014-Jun-13 08:34N 47°40' W 122°23'0 0.0
2014-Jun-13 08:30N 47°40' W 122°23'0 0.0
2014-Jun-13 07:33N 47°40' W 122°23'0 0.1
2014-Jun-13 07:30N 47°40' W 122°23'0 0.0
2014-Jun-13 06:33N 47°40' W 122°23'0 0.0
2014-Jun-13 06:30N 47°40' W 122°23'0 0.0
2014-Jun-13 06:00N 47°40' W 122°23'0 0.0
2014-Jun-13 05:33N 47°40' W 122°23'0 0.0
2014-Jun-13 04:33N 47°40' W 122°23'0 0.0
2014-Jun-13 04:25N 47°40' W 122°23'0 0.0
2014-Jun-13 03:33N 47°40' W 122°23'0 0.0
2014-Jun-13 03:30N 47°40' W 122°23'0 0.0
2014-Jun-13 02:33N 47°40' W 122°23'0 0.0
2014-Jun-13 02:30N 47°40' W 122°23'0 0.0
2014-Jun-13 01:33N 47°40' W 122°23'0 0.0
2014-Jun-13 01:30N 47°40' W 122°23'0 0.0
2014-Jun-13 00:30N 47°40' W 122°23'0 0.0
2014-Jun-13 00:19N 47°40' W 122°23'0 0.0
2014-Jun-12 23:33N 47°40' W 122°23'0 0.1
2014-Jun-12 23:29N 47°40' W 122°23'0 0.0
2014-Jun-12 22:34N 47°40' W 122°23'0 0.0
2014-Jun-12 22:33N 47°40' W 122°23'0 0.0
2014-Jun-12 21:34N 47°40' W 122°23'0 1.4
2014-Jun-12 21:33N 47°40' W 122°23'0 0.0
2014-Jun-12 20:34N 47°40' W 122°23'0 1.3
2014-Jun-12 20:33N 47°40' W 122°23'0 0.0
2014-Jun-12 19:33N 47°40' W 122°23'0 0.0
2014-Jun-12 19:33N 47°40' W 122°23'0 0.0
2014-Jun-12 18:33N 47°40' W 122°23'0 0.0
2014-Jun-12 18:33N 47°40' W 122°23'0 0.0
2014-Jun-12 17:33N 47°40' W 122°23'0 0.0
2014-Jun-12 17:33N 47°40' W 122°23'0 0.0
2014-Jun-12 16:33N 47°40' W 122°23'0 0.0
2014-Jun-12 16:33N 47°40' W 122°23'0 0.0
2014-Jun-12 15:33N 47°40' W 122°23'0 0.0
2014-Jun-12 15:33N 47°40' W 122°23'0 0.0
2014-Jun-12 14:33N 47°40' W 122°23'0 0.0
2014-Jun-12 14:33N 47°40' W 122°23'0 0.0
2014-Jun-12 13:33N 47°40' W 122°23'0 0.0
2014-Jun-12 13:33N 47°40' W 122°23'0 0.0
2014-Jun-12 12:33N 47°40' W 122°23'0 0.5
2014-Jun-12 12:33N 47°40' W 122°23'0 0.0
2014-Jun-12 11:33N 47°40' W 122°23'0 0.0
2014-Jun-12 11:33N 47°40' W 122°23'0 0.0
2014-Jun-12 10:33N 47°40' W 122°23'0 0.0
2014-Jun-12 10:33N 47°40' W 122°23'0 0.0
2014-Jun-12 09:33N 47°40' W 122°23'0 0.0
2014-Jun-12 09:33N 47°40' W 122°23'0 0.0
2014-Jun-12 08:33N 47°40' W 122°23'0 0.5
2014-Jun-12 08:33N 47°40' W 122°23'0 0.0
2014-Jun-12 07:33N 47°40' W 122°23'0 0.5
2014-Jun-12 07:33N 47°40' W 122°23'0 0.0
2014-Jun-12 06:33N 47°40' W 122°23'0 0.0
2014-Jun-12 06:33N 47°40' W 122°23'0 0.0
2014-Jun-12 05:58N 47°40' W 122°23'0 0.0
2014-Jun-12 05:33N 47°40' W 122°23'0 0.0
2014-Jun-12 04:33N 47°40' W 122°23'0 0.4
2014-Jun-12 04:33N 47°40' W 122°23'0 0.0
2014-Jun-12 03:33N 47°40' W 122°23'0 0.0
2014-Jun-12 03:33N 47°40' W 122°23'0 0.0
2014-Jun-12 02:33N 47°40' W 122°23'0 0.0
2014-Jun-12 02:33N 47°40' W 122°23'0 0.0
2014-Jun-12 01:33N 47°40' W 122°23'0 0.0
2014-Jun-12 01:32N 47°40' W 122°23'0 0.0
2014-Jun-12 00:33N 47°40' W 122°23'0 0.0
2014-Jun-12 00:32N 47°40' W 122°23'0 0.0
2014-Jun-11 23:33N 47°40' W 122°23'0 0.0
2014-Jun-11 23:32N 47°40' W 122°23'0 0.0
2014-Jun-11 22:33N 47°40' W 122°23'0 0.0
2014-Jun-11 22:32N 47°40' W 122°23'0 0.0
2014-Jun-11 21:33N 47°40' W 122°23'0 0.3
2014-Jun-11 21:32N 47°40' W 122°23'0 0.0
2014-Jun-11 20:33N 47°40' W 122°23'0 0.0
2014-Jun-11 20:32N 47°40' W 122°23'0 0.0
2014-Jun-11 19:33N 47°40' W 122°23'0 0.0
2014-Jun-11 19:32N 47°40' W 122°23'0 0.0
2014-Jun-11 18:33N 47°40' W 122°23'0 0.2
2014-Jun-11 18:32N 47°40' W 122°23'0 0.0
2014-Jun-11 17:33N 47°40' W 122°23'0 0.0
2014-Jun-11 17:32N 47°40' W 122°23'0 0.0
2014-Jun-11 16:33N 47°40' W 122°23'0 0.0
2014-Jun-11 16:32N 47°40' W 122°23'0 0.0
2014-Jun-11 15:33N 47°40' W 122°23'0 0.0
2014-Jun-11 15:32N 47°40' W 122°23'0 0.0
2014-Jun-11 14:33N 47°40' W 122°23'0 0.0
2014-Jun-11 14:32N 47°40' W 122°23'0 0.0
2014-Jun-11 13:33N 47°40' W 122°23'0 0.0
2014-Jun-11 13:32N 47°40' W 122°23'0 0.0
2014-Jun-11 12:33N 47°40' W 122°23'0 0.0
2014-Jun-11 12:32N 47°40' W 122°23'0 0.0
2014-Jun-11 11:33N 47°40' W 122°23'0 0.0
2014-Jun-11 11:31N 47°40' W 122°23'0 0.0
2014-Jun-11 10:33N 47°40' W 122°23'0 0.2
2014-Jun-11 10:31N 47°40' W 122°23'0 0.0
2014-Jun-11 09:33N 47°40' W 122°23'0 0.0
2014-Jun-11 09:31N 47°40' W 122°23'0 0.0
2014-Jun-11 08:33N 47°40' W 122°23'0 0.2
2014-Jun-11 08:31N 47°40' W 122°23'0 0.0
2014-Jun-11 07:33N 47°40' W 122°23'0 0.0
2014-Jun-11 07:31N 47°40' W 122°23'0 0.0
2014-Jun-11 06:33N 47°40' W 122°23'0 0.0
2014-Jun-11 06:31N 47°40' W 122°23'0 0.0
2014-Jun-11 06:01N 47°40' W 122°23'0 0.0
2014-Jun-11 05:33N 47°40' W 122°23'0 0.0
2014-Jun-11 04:33N 47°40' W 122°23'0 0.2
2014-Jun-11 04:31N 47°40' W 122°23'0 0.0
2014-Jun-11 03:33N 47°40' W 122°23'0 0.0
2014-Jun-11 03:31N 47°40' W 122°23'0 0.0
2014-Jun-11 02:33N 47°40' W 122°23'0 0.0
2014-Jun-11 02:31N 47°40' W 122°23'0 0.0
2014-Jun-11 01:33N 47°40' W 122°23'0 0.0
2014-Jun-11 01:31N 47°40' W 122°23'0 0.0
2014-Jun-11 00:33N 47°40' W 122°23'0 0.0
2014-Jun-11 00:31N 47°40' W 122°23'0 0.0
2014-Jun-10 23:33N 47°40' W 122°23'0 0.0
2014-Jun-10 23:20N 47°40' W 122°23'0 0.0
2014-Jun-10 22:33N 47°40' W 122°23'0 0.0
2014-Jun-10 22:23N 47°40' W 122°23'0 0.0
2014-Jun-10 21:33N 47°40' W 122°23'0 0.0
2014-Jun-10 21:33N 47°40' W 122°23'0 0.0
2014-Jun-10 20:33N 47°40' W 122°23'0 0.0
2014-Jun-10 20:33N 47°40' W 122°23'0 0.0
2014-Jun-10 19:33N 47°40' W 122°23'0 0.0
2014-Jun-10 19:32N 47°40' W 122°23'0 0.0
2014-Jun-10 18:33N 47°40' W 122°23'0 0.0
2014-Jun-10 18:32N 47°40' W 122°23'0 0.0
2014-Jun-10 17:34N 47°40' W 122°23'0 0.0
2014-Jun-10 17:32N 47°40' W 122°23'0 0.0
2014-Jun-10 16:33N 47°40' W 122°23'0 0.0
2014-Jun-10 16:32N 47°40' W 122°23'0 0.0
2014-Jun-10 15:33N 47°40' W 122°23'0 0.0
2014-Jun-10 15:32N 47°40' W 122°23'0 0.0
2014-Jun-10 14:33N 47°40' W 122°23'0 0.3
2014-Jun-10 14:32N 47°40' W 122°23'0 0.0
2014-Jun-10 13:33N 47°40' W 122°23'0 0.3
2014-Jun-10 13:32N 47°40' W 122°23'0 0.0
2014-Jun-10 12:33N 47°40' W 122°23'0 0.3
2014-Jun-10 12:32N 47°40' W 122°23'0 0.0
2014-Jun-10 11:33N 47°40' W 122°23'0 0.3
2014-Jun-10 11:32N 47°40' W 122°23'0 0.0
2014-Jun-10 10:33N 47°40' W 122°23'0 0.2
2014-Jun-10 10:32N 47°40' W 122°23'  
Track history (hours):
 
Tides and Currents Weather Stations Pressure Air Temp Water Temp Dewpoint Dewpoint Depression Visibility Wind Speed Wind Dir Waves Ship Positions

Polar Lady

More information available from US FCC via Universal Licensing System and Coast Guard Vessel Documentation Center.

Last reported at 2014-Jun-20 10:04 UTC. Time now 2014-Jul-24 21:45 UTC.
Position N 54°29' W 130°40'.
Warning: this ship's position is 34 days out of date.

Length 40 m.

Type: Fishing. MMSI: 367024080.

Date/timePositionNaut miles runAvg speedWind from/ knotsBaromVisibWave heightAir tempDewpointWater temp
2014-Jun-20 10:04N 54°29' W 130°40'5 8.9
2014-Jun-20 09:33N 54°25' W 130°38'9 8.6
2014-Jun-20 08:33N 54°17' W 130°33'150 7.9
2014-Jun-19 13:33N 52°14' W 128°11'8 7.5
2014-Jun-19 12:29N 52°06' W 128°08'8 8.1
2014-Jun-19 11:31N 52°03' W 127°56'28 9.0
2014-Jun-19 08:23N 51°35' W 127°52'7 9.0
2014-Jun-19 07:33N 51°27' W 127°51'18 8.6
2014-Jun-19 05:31N 51°10' W 127°50'8 8.6
2014-Jun-19 04:33N 51°04' W 127°41'9 9.3
2014-Jun-19 03:33N 50°58' W 127°30'9 9.0
2014-Jun-19 02:33N 50°52' W 127°19'9 8.9
2014-Jun-19 01:33N 50°48' W 127°07'17 7.9
2014-Jun-18 23:28N 50°37' W 126°46'9 8.1
2014-Jun-18 22:24N 50°31' W 126°37'8 9.2
2014-Jun-18 21:33N 50°30' W 126°25'9 9.5
2014-Jun-18 20:33N 50°29' W 126°10'68 8.0
2014-Jun-18 12:04N 49°45' W 124°49'5 9.1
2014-Jun-18 11:30N 49°42' W 124°44'9 9.0
2014-Jun-18 10:33N 49°36' W 124°34'10 9.0
2014-Jun-18 09:26N 49°28' W 124°24'8 8.8
2014-Jun-18 08:33N 49°24' W 124°13'10 8.6
2014-Jun-18 07:20N 49°21' W 123°58'7 8.6
2014-Jun-18 06:33N 49°19' W 123°48'9 8.7
2014-Jun-18 05:33N 49°13' W 123°38'9 9.3
2014-Jun-18 04:33N 49°07' W 123°27'10 9.7
2014-Jun-18 03:33N 49°01' W 123°16'9 9.3
2014-Jun-18 02:33N 48°55' W 123°05'9 9.3
2014-Jun-18 01:33N 48°49' W 122°54'9 9.0
2014-Jun-18 00:33N 48°43' W 122°44'9 9.3
2014-Jun-17 23:33N 48°34' W 122°45'9 8.6
2014-Jun-17 22:33N 48°25' W 122°44'17 7.7
2014-Jun-17 20:25N 48°09' W 122°41'1012.2
2014-Jun-17 19:33N 47°59' W 122°35'910.5
2014-Jun-17 18:43N 47°52' W 122°27'2 9.8
2014-Jun-17 18:33N 47°51' W 122°27'3 9.5
2014-Jun-17 18:12N 47°47' W 122°26'6 9.4
2014-Jun-17 17:33N 47°41' W 122°25'0 7.1
2014-Jun-17 17:32N 47°41' W 122°25'2 1.8
2014-Jun-17 16:33N 47°40' W 122°23'0 0.0
2014-Jun-17 16:32N 47°40' W 122°23'0 0.0
2014-Jun-17 15:33N 47°40' W 122°23'0 0.0
2014-Jun-17 15:31N 47°40' W 122°23'0 0.0
2014-Jun-17 14:33N 47°40' W 122°23'0 0.0
2014-Jun-17 14:31N 47°40' W 122°23'0 0.0
2014-Jun-17 13:33N 47°40' W 122°23'0 0.0
2014-Jun-17 13:31N 47°40' W 122°23'0 0.0
2014-Jun-17 12:33N 47°40' W 122°23'0 0.1
2014-Jun-17 12:30N 47°40' W 122°23'0 0.0
2014-Jun-17 11:33N 47°40' W 122°23'0 0.1
2014-Jun-17 11:30N 47°40' W 122°23'0 0.0
2014-Jun-17 10:33N 47°40' W 122°23'0 0.0
2014-Jun-17 10:30N 47°40' W 122°23'0 0.0
2014-Jun-17 09:33N 47°40' W 122°23'0 0.0
2014-Jun-17 09:30N 47°40' W 122°23'0 0.0
2014-Jun-17 08:33N 47°40' W 122°23'0 0.0
2014-Jun-17 08:30N 47°40' W 122°23'0 0.0
2014-Jun-17 07:34N 47°40' W 122°23'0 0.0
2014-Jun-17 07:24N 47°40' W 122°23'0 0.0
2014-Jun-17 06:33N 47°40' W 122°23'0 0.0
2014-Jun-17 06:30N 47°40' W 122°23'0 0.0
2014-Jun-17 06:00N 47°40' W 122°23'0 0.0
2014-Jun-17 05:33N 47°40' W 122°23'0 0.0
2014-Jun-17 04:32N 47°40' W 122°23'0 0.0
2014-Jun-17 04:24N 47°40' W 122°23'0 0.0
2014-Jun-17 03:29N 47°40' W 122°23'0 0.0
2014-Jun-17 02:29N 47°40' W 122°23'0 0.1
2014-Jun-17 02:25N 47°40' W 122°23'0 0.0
2014-Jun-17 01:33N 47°40' W 122°23'0 0.0
2014-Jun-17 00:40N 47°40' W 122°23'0 0.0
2014-Jun-17 00:33N 47°40' W 122°23'0 0.1
2014-Jun-17 00:31N 47°40' W 122°23'0 0.0
2014-Jun-16 23:33N 47°40' W 122°23'0 0.0
2014-Jun-16 23:30N 47°40' W 122°23'0 0.4
2014-Jun-16 22:33N 47°40' W 122°23'0 0.1
2014-Jun-16 22:30N 47°40' W 122°23'0 0.0
2014-Jun-16 21:33N 47°40' W 122°23'0 0.0
2014-Jun-16 21:25N 47°40' W 122°23'0 0.0
2014-Jun-16 20:33N 47°40' W 122°23'0 0.0
2014-Jun-16 20:30N 47°40' W 122°23'0 0.0
2014-Jun-16 19:33N 47°40' W 122°23'0 0.0
2014-Jun-16 18:33N 47°40' W 122°23'0 0.0
2014-Jun-16 17:33N 47°40' W 122°23'0 0.0
2014-Jun-16 16:33N 47°40' W 122°23'0 0.0
2014-Jun-16 16:07N 47°40' W 122°23'0 0.0
2014-Jun-16 15:33N 47°40' W 122°23'0 0.0
2014-Jun-16 15:32N 47°40' W 122°23'0 0.0
2014-Jun-16 14:33N 47°40' W 122°23'0 0.0
2014-Jun-16 14:32N 47°40' W 122°23'0 0.0
2014-Jun-16 13:33N 47°40' W 122°23'0 0.0
2014-Jun-16 13:32N 47°40' W 122°23'0 0.0
2014-Jun-16 12:33N 47°40' W 122°23'0 0.0
2014-Jun-16 12:32N 47°40' W 122°23'0 0.0
2014-Jun-16 11:33N 47°40' W 122°23'0 0.2
2014-Jun-16 11:32N 47°40' W 122°23'0 0.0
2014-Jun-16 10:33N 47°40' W 122°23'0 0.0
2014-Jun-16 10:05N 47°40' W 122°23'0 0.0
2014-Jun-16 09:33N 47°40' W 122°23'0 0.0
2014-Jun-16 09:31N 47°40' W 122°23'0 0.0
2014-Jun-16 08:33N 47°40' W 122°23'0 0.0
2014-Jun-16 08:30N 47°40' W 122°23'0 0.0
2014-Jun-16 07:33N 47°40' W 122°23'0 0.0
2014-Jun-16 07:30N 47°40' W 122°23'0 0.0
2014-Jun-16 06:33N 47°40' W 122°23'0 0.0
2014-Jun-16 06:29N 47°40' W 122°23'0 0.0
2014-Jun-16 05:58N 47°40' W 122°23'0 0.0
2014-Jun-16 05:33N 47°40' W 122°23'0 0.0
2014-Jun-16 04:34N 47°40' W 122°23'0 0.7
2014-Jun-16 04:33N 47°40' W 122°23'0 0.0
2014-Jun-16 03:33N 47°40' W 122°23'0 0.0
2014-Jun-16 03:33N 47°40' W 122°23'0 0.0
2014-Jun-16 02:33N 47°40' W 122°23'0 0.0
2014-Jun-16 02:33N 47°40' W 122°23'0 0.0
2014-Jun-16 01:33N 47°40' W 122°23'0 0.0
2014-Jun-16 01:33N 47°40' W 122°23'0 0.0
2014-Jun-16 00:33N 47°40' W 122°23'0 0.0
2014-Jun-16 00:33N 47°40' W 122°23'0 0.0
2014-Jun-15 23:33N 47°40' W 122°23'0 0.0
2014-Jun-15 23:33N 47°40' W 122°23'0 0.0
2014-Jun-15 22:33N 47°40' W 122°23'0 0.0
2014-Jun-15 22:33N 47°40' W 122°23'0 0.0
2014-Jun-15 21:33N 47°40' W 122°23'0 0.3
2014-Jun-15 21:32N 47°40' W 122°23'0 0.0
2014-Jun-15 20:33N 47°40' W 122°23'0 0.0
2014-Jun-15 20:33N 47°40' W 122°23'0 0.0
2014-Jun-15 19:33N 47°40' W 122°23'0 0.6
2014-Jun-15 19:33N 47°40' W 122°23'0 0.0
2014-Jun-15 18:33N 47°40' W 122°23'0 0.0
2014-Jun-15 18:17N 47°40' W 122°23'0 0.0
2014-Jun-15 17:33N 47°40' W 122°23'0 0.1
2014-Jun-15 17:31N 47°40' W 122°23'0 0.0
2014-Jun-15 16:33N 47°40' W 122°23'0 0.1
2014-Jun-15 16:31N 47°40' W 122°23'0 0.0
2014-Jun-15 15:33N 47°40' W 122°23'0 0.0
2014-Jun-15 15:30N 47°40' W 122°23'0 0.0
2014-Jun-15 14:33N 47°40' W 122°23'0 0.0
2014-Jun-15 14:31N 47°40' W 122°23'0 0.0
2014-Jun-15 13:33N 47°40' W 122°23'0 0.0
2014-Jun-15 13:31N 47°40' W 122°23'0 0.0
2014-Jun-15 12:32N 47°40' W 122°23'0 0.0
2014-Jun-15 12:31N 47°40' W 122°23'0 0.0
2014-Jun-15 11:33N 47°40' W 122°23'0 0.0
2014-Jun-15 11:30N 47°40' W 122°23'0 0.0
2014-Jun-15 10:33N 47°40' W 122°23'0 0.0
2014-Jun-15 10:30N 47°40' W 122°23'0 0.0
2014-Jun-15 09:33N 47°40' W 122°23'0 0.0
2014-Jun-15 09:30N 47°40' W 122°23'0 0.0
2014-Jun-15 08:33N 47°40' W 122°23'0 0.0
2014-Jun-15 08:30N 47°40' W 122°23'0 0.0
2014-Jun-15 07:33N 47°40' W 122°23'0 0.1
2014-Jun-15 07:30N 47°40' W 122°23'0 0.0
2014-Jun-15 06:33N 47°40' W 122°23'0 0.0
2014-Jun-15 06:30N 47°40' W 122°23'0 0.0
2014-Jun-15 06:00N 47°40' W 122°23'0 0.0
2014-Jun-15 05:33N 47°40' W 122°23'0 0.0
2014-Jun-15 04:33N 47°40' W 122°23'0 0.0
2014-Jun-15 04:29N 47°40' W 122°23'0 0.0
2014-Jun-15 03:33N 47°40' W 122°23'0 0.0
2014-Jun-15 03:29N 47°40' W 122°23'0 0.0
2014-Jun-15 02:33N 47°40' W 122°23'0 0.0
2014-Jun-15 02:29N 47°40' W 122°23'0 0.0
2014-Jun-15 01:34N 47°40' W 122°23'0 0.0
2014-Jun-15 01:33N 47°40' W 122°23'0 0.0
2014-Jun-15 00:33N 47°40' W 122°23'0 0.0
2014-Jun-15 00:33N 47°40' W 122°23'0 0.0
2014-Jun-14 23:33N 47°40' W 122°23'0 0.0
2014-Jun-14 23:31N 47°40' W 122°23'0 0.0
2014-Jun-14 22:33N 47°40' W 122°23'0 0.0
2014-Jun-14 22:15N 47°40' W 122°23'0 0.0
2014-Jun-14 21:33N 47°40' W 122°23'0 0.0
2014-Jun-14 21:26N 47°40' W 122°23'0 0.0
2014-Jun-14 20:33N 47°40' W 122°23'0 0.1
2014-Jun-14 20:30N 47°40' W 122°23'0 0.0
2014-Jun-14 19:33N 47°40' W 122°23'0 0.1
2014-Jun-14 19:30N 47°40' W 122°23'0 0.0
2014-Jun-14 18:33N 47°40' W 122°23'0 0.0
2014-Jun-14 18:30N 47°40' W 122°23'0 0.0
2014-Jun-14 17:33N 47°40' W 122°23'0 0.0
2014-Jun-14 17:29N 47°40' W 122°23'0 0.0
2014-Jun-14 16:33N 47°40' W 122°23'0 0.0
2014-Jun-14 16:29N 47°40' W 122°23'0 0.0
2014-Jun-14 15:34N 47°40' W 122°23'0 0.0
2014-Jun-14 15:33N 47°40' W 122°23'0 0.0
2014-Jun-14 14:34N 47°40' W 122°23'0 0.0
2014-Jun-14 14:33N 47°40' W 122°23'0 0.0
2014-Jun-14 13:33N 47°40' W 122°23'0 0.0
2014-Jun-14 13:33N 47°40' W 122°23'0 0.0
2014-Jun-14 12:34N 47°40' W 122°23'0 0.0
2014-Jun-14 12:33N 47°40' W 122°23'0 0.0
2014-Jun-14 11:33N 47°40' W 122°23'0 0.0
2014-Jun-14 11:33N 47°40' W 122°23'0 0.0
2014-Jun-14 10:33N 47°40' W 122°23'0 0.0
2014-Jun-14 10:33N 47°40' W 122°23'0 0.0
2014-Jun-14 09:33N 47°40' W 122°23'0 0.0
2014-Jun-14 09:33N 47°40' W 122°23'0 0.0
2014-Jun-14 08:33N 47°40' W 122°23'0 0.0
2014-Jun-14 08:33N 47°40' W 122°23'0 0.0
2014-Jun-14 07:33N 47°40' W 122°23'0 0.0
2014-Jun-14 07:33N 47°40' W 122°23'0 0.0
2014-Jun-14 06:33N 47°40' W 122°23'0 0.0
2014-Jun-14 06:33N 47°40' W 122°23'0 0.0
2014-Jun-14 05:53N 47°40' W 122°23'0 0.0
2014-Jun-14 05:33N 47°40' W 122°23'0 0.0
2014-Jun-14 04:33N 47°40' W 122°23'0 0.0
2014-Jun-14 04:32N 47°40' W 122°23'0 0.0
2014-Jun-14 03:33N 47°40' W 122°23'0 0.0
2014-Jun-14 03:33N 47°40' W 122°23'0 0.0
2014-Jun-14 02:33N 47°40' W 122°23'0 0.0
2014-Jun-14 02:32N 47°40' W 122°23'0 0.0
2014-Jun-14 01:33N 47°40' W 122°23'0 0.0
2014-Jun-14 01:32N 47°40' W 122°23'0 0.0
2014-Jun-14 00:33N 47°40' W 122°23'0 0.0
2014-Jun-14 00:32N 47°40' W 122°23'0 0.0
2014-Jun-13 23:33N 47°40' W 122°23'0 0.4
2014-Jun-13 23:32N 47°40' W 122°23'0 0.0
2014-Jun-13 22:33N 47°40' W 122°23'0 0.4
2014-Jun-13 22:32N 47°40' W 122°23'0 0.0
2014-Jun-13 21:33N 47°40' W 122°23'0 0.0
2014-Jun-13 21:32N 47°40' W 122°23'0 0.0
2014-Jun-13 20:33N 47°40' W 122°23'0 0.0
2014-Jun-13 19:49N 47°40' W 122°23'0 0.0
2014-Jun-13 19:33N 47°40' W 122°23'0 0.0
2014-Jun-13 19:33N 47°40' W 122°23'0 0.0
2014-Jun-13 18:34N 47°40' W 122°23'0 0.0
2014-Jun-13 18:33N 47°40' W 122°23'0 0.0
2014-Jun-13 17:34N 47°40' W 122°23'0 1.7
2014-Jun-13 17:33N 47°40' W 122°23'0 0.0
2014-Jun-13 16:34N 47°40' W 122°23'0 0.0
2014-Jun-13 16:33N 47°40' W 122°23'0 0.0
2014-Jun-13 15:33N 47°40' W 122°23'0 0.1
2014-Jun-13 15:28N 47°40' W 122°23'0 0.0
2014-Jun-13 14:33N 47°40' W 122°23'0 0.0
2014-Jun-13 14:32N 47°40' W 122°23'0 0.0
2014-Jun-13 13:33N 47°40' W 122°23'0 0.3
2014-Jun-13 13:32N 47°40' W 122°23'0 0.0
2014-Jun-13 12:33N 47°40' W 122°23'0 0.0
2014-Jun-13 12:07N 47°40' W 122°23'0 0.0
2014-Jun-13 11:33N 47°40' W 122°23'0 0.0
2014-Jun-13 11:27N 47°40' W 122°23'0 0.0
2014-Jun-13 10:33N 47°40' W 122°23'0 0.0
2014-Jun-13 10:32N 47°40' W 122°23'0 0.0
2014-Jun-13 09:33N 47°40' W 122°23'0 0.0
2014-Jun-13 09:30N 47°40' W 122°23'0 0.0
2014-Jun-13 08:34N 47°40' W 122°23'0 0.0
2014-Jun-13 08:30N 47°40' W 122°23'0 0.0
2014-Jun-13 07:33N 47°40' W 122°23'0 0.1
2014-Jun-13 07:30N 47°40' W 122°23'0 0.0
2014-Jun-13 06:33N 47°40' W 122°23'0 0.0
2014-Jun-13 06:30N 47°40' W 122°23'0 0.0
2014-Jun-13 06:00N 47°40' W 122°23'0 0.0
2014-Jun-13 05:33N 47°40' W 122°23'0 0.0
2014-Jun-13 04:33N 47°40' W 122°23'0 0.0
2014-Jun-13 04:25N 47°40' W 122°23'0 0.0
2014-Jun-13 03:33N 47°40' W 122°23'0 0.0
2014-Jun-13 03:30N 47°40' W 122°23'0 0.0
2014-Jun-13 02:33N 47°40' W 122°23'0 0.0
2014-Jun-13 02:30N 47°40' W 122°23'0 0.0
2014-Jun-13 01:33N 47°40' W 122°23'0 0.0
2014-Jun-13 01:30N 47°40' W 122°23'0 0.0
2014-Jun-13 00:30N 47°40' W 122°23'0 0.0
2014-Jun-13 00:19N 47°40' W 122°23'0 0.0
2014-Jun-12 23:33N 47°40' W 122°23'0 0.1
2014-Jun-12 23:29N 47°40' W 122°23'0 0.0
2014-Jun-12 22:34N 47°40' W 122°23'0 0.0
2014-Jun-12 22:33N 47°40' W 122°23'0 0.0
2014-Jun-12 21:34N 47°40' W 122°23'0 1.4
2014-Jun-12 21:33N 47°40' W 122°23'0 0.0
2014-Jun-12 20:34N 47°40' W 122°23'0 1.3
2014-Jun-12 20:33N 47°40' W 122°23'0 0.0
2014-Jun-12 19:33N 47°40' W 122°23'0 0.0
2014-Jun-12 19:33N 47°40' W 122°23'0 0.0
2014-Jun-12 18:33N 47°40' W 122°23'0 0.0
2014-Jun-12 18:33N 47°40' W 122°23'0 0.0
2014-Jun-12 17:33N 47°40' W 122°23'0 0.0
2014-Jun-12 17:33N 47°40' W 122°23'0 0.0
2014-Jun-12 16:33N 47°40' W 122°23'0 0.0
2014-Jun-12 16:33N 47°40' W 122°23'0 0.0
2014-Jun-12 15:33N 47°40' W 122°23'0 0.0
2014-Jun-12 15:33N 47°40' W 122°23'0 0.0
2014-Jun-12 14:33N 47°40' W 122°23'0 0.0
2014-Jun-12 14:33N 47°40' W 122°23'0 0.0
2014-Jun-12 13:33N 47°40' W 122°23'0 0.0
2014-Jun-12 13:33N 47°40' W 122°23'0 0.0
2014-Jun-12 12:33N 47°40' W 122°23'0 0.5
2014-Jun-12 12:33N 47°40' W 122°23'0 0.0
2014-Jun-12 11:33N 47°40' W 122°23'0 0.0
2014-Jun-12 11:33N 47°40' W 122°23'0 0.0
2014-Jun-12 10:33N 47°40' W 122°23'0 0.0
2014-Jun-12 10:33N 47°40' W 122°23'0 0.0
2014-Jun-12 09:33N 47°40' W 122°23'0 0.0
2014-Jun-12 09:33N 47°40' W 122°23'0 0.0
2014-Jun-12 08:33N 47°40' W 122°23'0 0.5
2014-Jun-12 08:33N 47°40' W 122°23'0 0.0
2014-Jun-12 07:33N 47°40' W 122°23'0 0.5
2014-Jun-12 07:33N 47°40' W 122°23'0 0.0
2014-Jun-12 06:33N 47°40' W 122°23'0 0.0
2014-Jun-12 06:33N 47°40' W 122°23'0 0.0
2014-Jun-12 05:58N 47°40' W 122°23'0 0.0
2014-Jun-12 05:33N 47°40' W 122°23'0 0.0
2014-Jun-12 04:33N 47°40' W 122°23'0 0.4
2014-Jun-12 04:33N 47°40' W 122°23'0 0.0
2014-Jun-12 03:33N 47°40' W 122°23'0 0.0
2014-Jun-12 03:33N 47°40' W 122°23'0 0.0
2014-Jun-12 02:33N 47°40' W 122°23'0 0.0
2014-Jun-12 02:33N 47°40' W 122°23'0 0.0
2014-Jun-12 01:33N 47°40' W 122°23'0 0.0
2014-Jun-12 01:32N 47°40' W 122°23'0 0.0
2014-Jun-12 00:33N 47°40' W 122°23'0 0.0
2014-Jun-12 00:32N 47°40' W 122°23'0 0.0
2014-Jun-11 23:33N 47°40' W 122°23'0 0.0
2014-Jun-11 23:32N 47°40' W 122°23'0 0.0
2014-Jun-11 22:33N 47°40' W 122°23'0 0.0
2014-Jun-11 22:32N 47°40' W 122°23'0 0.0
2014-Jun-11 21:33N 47°40' W 122°23'0 0.3
2014-Jun-11 21:32N 47°40' W 122°23'0 0.0
2014-Jun-11 20:33N 47°40' W 122°23'0 0.0
2014-Jun-11 20:32N 47°40' W 122°23'0 0.0
2014-Jun-11 19:33N 47°40' W 122°23'0 0.0
2014-Jun-11 19:32N 47°40' W 122°23'0 0.0
2014-Jun-11 18:33N 47°40' W 122°23'0 0.2
2014-Jun-11 18:32N 47°40' W 122°23'0 0.0
2014-Jun-11 17:33N 47°40' W 122°23'0 0.0
2014-Jun-11 17:32N 47°40' W 122°23'0 0.0
2014-Jun-11 16:33N 47°40' W 122°23'0 0.0
2014-Jun-11 16:32N 47°40' W 122°23'0 0.0
2014-Jun-11 15:33N 47°40' W 122°23'0 0.0
2014-Jun-11 15:32N 47°40' W 122°23'0 0.0
2014-Jun-11 14:33N 47°40' W 122°23'0 0.0
2014-Jun-11 14:32N 47°40' W 122°23'0 0.0
2014-Jun-11 13:33N 47°40' W 122°23'0 0.0
2014-Jun-11 13:32N 47°40' W 122°23'0 0.0
2014-Jun-11 12:33N 47°40' W 122°23'0 0.0
2014-Jun-11 12:32N 47°40' W 122°23'0 0.0
2014-Jun-11 11:33N 47°40' W 122°23'0 0.0
2014-Jun-11 11:31N 47°40' W 122°23'0 0.0
2014-Jun-11 10:33N 47°40' W 122°23'0 0.2
2014-Jun-11 10:31N 47°40' W 122°23'0 0.0
2014-Jun-11 09:33N 47°40' W 122°23'0 0.0
2014-Jun-11 09:31N 47°40' W 122°23'0 0.0
2014-Jun-11 08:33N 47°40' W 122°23'0 0.2
2014-Jun-11 08:31N 47°40' W 122°23'0 0.0
2014-Jun-11 07:33N 47°40' W 122°23'0 0.0
2014-Jun-11 07:31N 47°40' W 122°23'0 0.0
2014-Jun-11 06:33N 47°40' W 122°23'0 0.0
2014-Jun-11 06:31N 47°40' W 122°23'0 0.0
2014-Jun-11 06:01N 47°40' W 122°23'0 0.0
2014-Jun-11 05:33N 47°40' W 122°23'0 0.0
2014-Jun-11 04:33N 47°40' W 122°23'0 0.2
2014-Jun-11 04:31N 47°40' W 122°23'0 0.0
2014-Jun-11 03:33N 47°40' W 122°23'0 0.0
2014-Jun-11 03:31N 47°40' W 122°23'0 0.0
2014-Jun-11 02:33N 47°40' W 122°23'0 0.0
2014-Jun-11 02:31N 47°40' W 122°23'0 0.0
2014-Jun-11 01:33N 47°40' W 122°23'0 0.0
2014-Jun-11 01:31N 47°40' W 122°23'0 0.0
2014-Jun-11 00:33N 47°40' W 122°23'0 0.0
2014-Jun-11 00:31N 47°40' W 122°23'0 0.0
2014-Jun-10 23:33N 47°40' W 122°23'0 0.0
2014-Jun-10 23:20N 47°40' W 122°23'0 0.0
2014-Jun-10 22:33N 47°40' W 122°23'0 0.0
2014-Jun-10 22:23N 47°40' W 122°23'0 0.0
2014-Jun-10 21:33N 47°40' W 122°23'0 0.0
2014-Jun-10 21:33N 47°40' W 122°23'0 0.0
2014-Jun-10 20:33N 47°40' W 122°23'0 0.0
2014-Jun-10 20:33N 47°40' W 122°23'0 0.0
2014-Jun-10 19:33N 47°40' W 122°23'0 0.0
2014-Jun-10 19:32N 47°40' W 122°23'0 0.0
2014-Jun-10 18:33N 47°40' W 122°23'0 0.0
2014-Jun-10 18:32N 47°40' W 122°23'0 0.0
2014-Jun-10 17:34N 47°40' W 122°23'0 0.0
2014-Jun-10 17:32N 47°40' W 122°23'0 0.0
2014-Jun-10 16:33N 47°40' W 122°23'0 0.0
2014-Jun-10 16:32N 47°40' W 122°23'0 0.0
2014-Jun-10 15:33N 47°40' W 122°23'0 0.0
2014-Jun-10 15:32N 47°40' W 122°23'0 0.0
2014-Jun-10 14:33N 47°40' W 122°23'0 0.3
2014-Jun-10 14:32N 47°40' W 122°23'0 0.0
2014-Jun-10 13:33N 47°40' W 122°23'0 0.3
2014-Jun-10 13:32N 47°40' W 122°23'0 0.0
2014-Jun-10 12:33N 47°40' W 122°23'0 0.3
2014-Jun-10 12:32N 47°40' W 122°23'0 0.0
2014-Jun-10 11:33N 47°40' W 122°23'0 0.3
2014-Jun-10 11:32N 47°40' W 122°23'0 0.0
2014-Jun-10 10:33N 47°40' W 122°23'0 0.2
2014-Jun-10 10:32N 47°40' W 122°23'  

Dump ship's entire track history